createdAt,value
2022-11-06T01:09:44.779Z,7.00
2022-11-06T01:12:13.362Z,6.77
2022-11-06T01:14:41.367Z,6.87
2022-11-06T01:17:08.411Z,6.95
2022-11-06T01:19:36.171Z,6.90
2022-11-06T01:48:28.109Z,6.43
2022-11-06T01:50:56.944Z,6.49
2022-11-06T01:53:24.135Z,6.46
2022-11-06T01:55:55.063Z,6.49
2022-11-06T01:58:23.182Z,6.60
2022-11-06T02:04:12.419Z,6.59
2022-11-06T02:06:39.069Z,6.53
2022-11-06T02:09:11.322Z,6.55
2022-11-06T02:11:42.069Z,6.47
2022-11-06T02:14:22.697Z,6.46
2022-11-06T02:16:55.285Z,6.51
2022-11-06T02:19:43.649Z,6.43
2022-11-06T02:22:32.039Z,6.48
2022-11-06T02:25:06.963Z,6.52
2022-11-06T02:27:41.588Z,6.62
2022-11-06T02:30:09.063Z,6.54
2022-11-06T02:33:02.362Z,6.54
2022-11-06T02:35:33.036Z,6.57
2022-11-06T02:38:09.628Z,6.53
2022-11-06T02:40:42.478Z,6.42
2022-11-06T02:43:09.949Z,6.50
2022-11-06T02:45:45.095Z,6.32
2022-11-06T02:48:12.319Z,6.44
2022-11-06T02:50:43.636Z,6.48
2022-11-06T02:53:12.272Z,6.48
2022-11-06T02:55:42.408Z,6.53
2022-11-06T02:58:38.920Z,6.53
2022-11-06T08:21:43.897Z,9.86
2022-11-06T08:24:19.023Z,9.78
2022-11-06T08:26:48.951Z,9.74
2022-11-06T08:29:16.574Z,9.81
2022-11-06T08:31:44.419Z,9.78
2022-11-06T08:34:13.960Z,9.77
2022-11-06T08:36:51.363Z,9.93
2022-11-06T08:39:22.152Z,10.00
2022-11-06T08:42:04.806Z,9.99
2022-11-06T08:44:46.700Z,9.98
2022-11-06T08:47:18.116Z,9.99
2022-11-06T08:49:53.577Z,9.91
2022-11-06T08:52:21.737Z,10.06
2022-11-06T08:54:56.376Z,10.05
2022-11-06T08:57:33.766Z,10.23
2022-11-06T12:36:25.022Z,12.51
2022-11-06T12:38:59.713Z,12.54
2022-11-06T12:41:31.296Z,12.50
2022-11-06T12:43:58.473Z,12.38
2022-11-06T12:46:40.371Z,12.41
2022-11-06T12:49:12.718Z,12.39
2022-11-06T12:51:43.541Z,12.12
2022-11-06T12:54:32.177Z,12.24
2022-11-06T12:57:15.487Z,12.51
2022-11-06T12:59:51.005Z,12.33
2022-11-06T13:03:05.217Z,12.14
2022-11-06T13:05:55.768Z,12.21
2022-11-06T13:08:35.977Z,12.46
2022-11-06T13:11:31.484Z,12.44
2022-11-06T13:14:22.459Z,12.46
2022-11-06T13:16:55.539Z,12.35
2022-11-06T13:19:33.568Z,12.01
2022-11-06T13:22:30.068Z,11.90
2022-11-06T13:25:13.044Z,11.82
2022-11-06T13:27:59.813Z,11.93
2022-11-06T13:30:28.854Z,12.05
2022-11-06T13:33:15.066Z,11.83
2022-11-06T13:35:43.363Z,11.94
2022-11-06T13:38:15.597Z,11.79
2022-11-06T13:41:07.683Z,11.78
2022-11-06T13:43:39.564Z,11.78
2022-11-06T13:46:19.086Z,11.86
2022-11-06T13:49:23.555Z,11.82
2022-11-06T13:51:53.975Z,11.67
2022-11-06T13:54:48.770Z,11.59
2022-11-06T13:57:37.902Z,11.66
2022-11-06T14:00:24.171Z,11.71
2022-11-06T14:11:30.801Z,11.59
2022-11-06T14:14:02.659Z,11.61
2022-11-06T14:16:38.711Z,11.51
2022-11-06T14:19:11.480Z,11.57
2022-11-06T14:21:37.990Z,11.59
2022-11-06T14:24:17.550Z,11.64
2022-11-06T14:26:45.388Z,11.63
2022-11-06T14:29:41.890Z,11.57
2022-11-06T14:32:21.564Z,11.62
2022-11-06T14:34:48.347Z,11.50
2022-11-06T14:37:17.571Z,11.40
2022-11-06T14:39:56.287Z,11.39
2022-11-06T14:42:32.212Z,11.12
2022-11-06T14:45:15.819Z,11.01
2022-11-06T14:47:52.452Z,10.80
2022-11-06T14:50:19.001Z,10.73
2022-11-06T14:52:48.188Z,10.59
2022-11-06T14:55:26.032Z,10.61
2022-11-06T14:57:53.645Z,10.48
2022-11-06T15:00:35.478Z,10.33
2022-11-06T15:03:04.287Z,10.23
2022-11-06T15:05:31.414Z,10.10
2022-11-06T15:08:04.896Z,9.99
2022-11-06T15:10:44.592Z,9.94
2022-11-06T15:13:17.711Z,9.83
2022-11-06T15:15:46.460Z,9.76
2022-11-06T15:18:17.049Z,9.67
2022-11-06T15:20:46.943Z,9.56
2022-11-06T15:24:38.260Z,9.50
2022-11-06T15:27:15.604Z,9.26
2022-11-06T15:29:42.941Z,9.15
2022-11-06T15:32:13.117Z,9.03
2022-11-06T15:34:46.085Z,8.90
2022-11-06T15:53:28.711Z,8.02
2022-11-06T15:56:04.823Z,7.88
2022-11-06T15:58:37.165Z,7.85
2022-11-06T16:01:12.465Z,7.82
2022-11-06T16:03:51.526Z,7.68
2022-11-06T16:06:18.743Z,7.64
2022-11-06T16:08:48.955Z,7.51
2022-11-06T16:11:17.610Z,7.43
2022-11-06T16:13:44.725Z,7.38
2022-11-06T16:16:43.251Z,7.42
2022-11-06T16:19:42.539Z,7.27
2022-11-06T16:22:27.529Z,7.22
2022-11-06T16:28:25.125Z,7.13
2022-11-06T16:31:10.707Z,7.14
2022-11-06T16:34:10.633Z,7.04
2022-11-06T16:37:10.161Z,6.88
2022-11-06T16:47:19.689Z,6.87
2022-11-06T16:50:15.835Z,6.81
2022-11-06T16:55:44.406Z,6.71
2022-11-06T16:58:30.190Z,6.69
2022-11-06T17:01:06.236Z,6.62
2022-11-06T17:03:51.651Z,6.67
2022-11-06T17:06:49.685Z,6.58
2022-11-06T17:17:35.399Z,6.38
2022-11-06T17:20:36.687Z,6.34
2022-11-06T17:23:20.166Z,6.31
2022-11-06T17:25:54.131Z,6.26
